sensor_id;sensor_type;location;lat;lon;timestamp;temperature;humidity
2889;DHT22;1453;42.708;23.282;2023-04-15T08:38:01;14.20;60.50
2889;DHT22;1453;42.708;23.282;2023-04-15T08:40:34;14.60;65.50
2889;DHT22;1453;42.708;23.282;2023-04-15T08:43:11;14.00;66.00
2889;DHT22;1453;42.708;23.282;2023-04-15T08:45:40;13.80;66.50
2889;DHT22;1453;42.708;23.282;2023-04-15T08:48:09;13.90;66.90
2889;DHT22;1453;42.708;23.282;2023-04-15T08:50:41;13.90;66.00
2889;DHT22;1453;42.708;23.282;2023-04-15T08:53:08;14.20;66.40
2889;DHT22;1453;42.708;23.282;2023-04-15T08:55:41;14.00;65.70
2889;DHT22;1453;42.708;23.282;2023-04-15T08:58:12;13.60;66.60
2889;DHT22;1453;42.708;23.282;2023-04-15T09:00:39;13.50;65.60
2889;DHT22;1453;42.708;23.282;2023-04-15T09:03:07;13.50;65.10
2889;DHT22;1453;42.708;23.282;2023-04-15T09:05:34;13.50;63.90
2889;DHT22;1453;42.708;23.282;2023-04-15T09:08:02;13.50;63.10
2889;DHT22;1453;42.708;23.282;2023-04-15T09:10:28;14.40;64.50
2889;DHT22;1453;42.708;23.282;2023-04-15T09:12:55;15.10;63.20
2889;DHT22;1453;42.708;23.282;2023-04-15T09:15:24;15.00;60.20
2889;DHT22;1453;42.708;23.282;2023-04-15T09:17:50;14.90;59.90
2889;DHT22;1453;42.708;23.282;2023-04-15T09:20:16;16.10;60.80
2889;DHT22;1453;42.708;23.282;2023-04-15T09:22:46;15.50;57.60
2889;DHT22;1453;42.708;23.282;2023-04-15T09:27:52;14.90;59.10
2889;DHT22;1453;42.708;23.282;2023-04-15T09:30:25;14.80;58.20
2889;DHT22;1453;42.708;23.282;2023-04-15T09:32:57;14.60;58.50
2889;DHT22;1453;42.708;23.282;2023-04-15T09:35:25;15.30;58.90
2889;DHT22;1453;42.708;23.282;2023-04-15T09:38:03;15.80;57.80
2889;DHT22;1453;42.708;23.282;2023-04-15T09:40:32;15.80;57.80
2889;DHT22;1453;42.708;23.282;2023-04-15T09:43:03;15.40;55.90
2889;DHT22;1453;42.708;23.282;2023-04-15T09:45:30;15.80;56.40
2889;DHT22;1453;42.708;23.282;2023-04-15T09:47:58;16.90;56.30
2889;DHT22;1453;42.708;23.282;2023-04-15T09:50:28;16.20;56.10
2889;DHT22;1453;42.708;23.282;2023-04-15T09:52:55;15.30;54.60
2889;DHT22;1453;42.708;23.282;2023-04-15T09:55:21;15.40;53.80
2889;DHT22;1453;42.708;23.282;2023-04-15T09:57:47;15.80;52.20
2889;DHT22;1453;42.708;23.282;2023-04-15T10:00:13;15.80;53.00
2889;DHT22;1453;42.708;23.282;2023-04-15T10:02:40;15.10;53.50
2889;DHT22;1453;42.708;23.282;2023-04-15T10:05:10;15.30;54.30
2889;DHT22;1453;42.708;23.282;2023-04-15T10:07:37;15.00;51.10
2889;DHT22;1453;42.708;23.282;2023-04-15T10:10:06;14.70;49.50
2889;DHT22;1453;42.708;23.282;2023-04-15T10:12:32;14.90;50.40
2889;DHT22;1453;42.708;23.282;2023-04-15T10:15:02;15.10;49.30
2889;DHT22;1453;42.708;23.282;2023-04-15T10:17:32;15.20;48.80
2889;DHT22;1453;42.708;23.282;2023-04-15T10:20:03;15.60;50.70
2889;DHT22;1453;42.708;23.282;2023-04-15T10:22:31;15.30;50.80
2889;DHT22;1453;42.708;23.282;2023-04-15T10:24:58;15.80;51.20
2889;DHT22;1453;42.708;23.282;2023-04-15T10:27:27;16.20;50.80
2889;DHT22;1453;42.708;23.282;2023-04-15T10:29:53;15.60;51.00
2889;DHT22;1453;42.708;23.282;2023-04-15T10:32:20;15.80;51.10
2889;DHT22;1453;42.708;23.282;2023-04-15T10:34:48;15.60;51.50
2889;DHT22;1453;42.708;23.282;2023-04-15T10:37:21;15.80;50.70
2889;DHT22;1453;42.708;23.282;2023-04-15T10:39:47;15.50;51.60
2889;DHT22;1453;42.708;23.282;2023-04-15T10:42:15;15.40;51.90
2889;DHT22;1453;42.708;23.282;2023-04-15T10:44:48;16.30;51.80
2889;DHT22;1453;42.708;23.282;2023-04-15T10:47:18;16.30;51.30
2889;DHT22;1453;42.708;23.282;2023-04-15T10:49:47;15.90;53.10
2889;DHT22;1453;42.708;23.282;2023-04-15T10:52:14;16.20;53.20
2889;DHT22;1453;42.708;23.282;2023-04-15T10:54:41;17.00;54.70
2889;DHT22;1453;42.708;23.282;2023-04-15T10:57:13;16.00;53.10
2889;DHT22;1453;42.708;23.282;2023-04-15T11:00:01;16.40;52.50
2889;DHT22;1453;42.708;23.282;2023-04-15T11:02:54;16.60;51.90
2889;DHT22;1453;42.708;23.282;2023-04-15T11:08:11;16.80;53.70
2889;DHT22;1453;42.708;23.282;2023-04-15T11:13:17;17.10;54.10
2889;DHT22;1453;42.708;23.282;2023-04-15T11:15:49;16.40;51.60
2889;DHT22;1453;42.708;23.282;2023-04-15T11:18:24;16.70;52.40
2889;DHT22;1453;42.708;23.282;2023-04-15T11:20:54;17.00;52.70
2889;DHT22;1453;42.708;23.282;2023-04-15T11:23:33;17.00;53.60
2889;DHT22;1453;42.708;23.282;2023-04-15T11:26:02;17.10;53.00
2889;DHT22;1453;42.708;23.282;2023-04-15T11:28:34;16.40;53.20
2889;DHT22;1453;42.708;23.282;2023-04-15T11:31:15;16.40;53.10
2889;DHT22;1453;42.708;23.282;2023-04-15T11:33:52;16.20;52.20
2889;DHT22;1453;42.708;23.282;2023-04-15T11:36:19;16.20;52.20
2889;DHT22;1453;42.708;23.282;2023-04-15T11:38:46;16.00;51.30
2889;DHT22;1453;42.708;23.282;2023-04-15T11:41:12;16.30;51.80
2889;DHT22;1453;42.708;23.282;2023-04-15T11:43:38;16.80;51.30
2889;DHT22;1453;42.708;23.282;2023-04-15T11:46:03;16.50;50.50
2889;DHT22;1453;42.708;23.282;2023-04-15T11:48:34;16.70;50.00
2889;DHT22;1453;42.708;23.282;2023-04-15T11:51:02;17.30;50.30
2889;DHT22;1453;42.708;23.282;2023-04-15T11:53:38;17.60;49.60
2889;DHT22;1453;42.708;23.282;2023-04-15T11:56:06;16.90;48.60
2889;DHT22;1453;42.708;23.282;2023-04-15T11:58:34;16.20;48.80
2889;DHT22;1453;42.708;23.282;2023-04-15T12:01:05;16.30;49.50
2889;DHT22;1453;42.708;23.282;2023-04-15T12:03:39;16.50;49.70
2889;DHT22;1453;42.708;23.282;2023-04-15T12:06:12;16.90;47.60
2889;DHT22;1453;42.708;23.282;2023-04-15T12:09:14;16.90;48.70
2889;DHT22;1453;42.708;23.282;2023-04-15T12:14:30;16.40;48.50
2889;DHT22;1453;42.708;23.282;2023-04-15T12:19:39;16.60;47.90
2889;DHT22;1453;42.708;23.282;2023-04-15T12:22:09;16.80;48.60
2889;DHT22;1453;42.708;23.282;2023-04-15T12:24:40;16.70;47.10
2889;DHT22;1453;42.708;23.282;2023-04-15T12:27:15;17.10;46.90
2889;DHT22;1453;42.708;23.282;2023-04-15T12:29:42;16.60;46.80
2889;DHT22;1453;42.708;23.282;2023-04-15T12:32:13;16.70;47.20
2889;DHT22;1453;42.708;23.282;2023-04-15T12:34:50;16.60;48.20
2889;DHT22;1453;42.708;23.282;2023-04-15T12:37:17;16.60;48.40
2889;DHT22;1453;42.708;23.282;2023-04-15T12:39:45;16.70;47.80
2889;DHT22;1453;42.708;23.282;2023-04-15T12:42:16;16.40;48.90
2889;DHT22;1453;42.708;23.282;2023-04-15T12:44:43;16.70;49.40
2889;DHT22;1453;42.708;23.282;2023-04-15T12:47:10;16.80;48.20
2889;DHT22;1453;42.708;23.282;2023-04-15T12:49:36;17.40;48.60
2889;DHT22;1453;42.708;23.282;2023-04-15T12:52:03;17.00;48.70
2889;DHT22;1453;42.708;23.282;2023-04-15T12:54:29;16.90;48.70
2889;DHT22;1453;42.708;23.282;2023-04-15T12:56:56;16.70;48.30
2889;DHT22;1453;42.708;23.282;2023-04-15T12:59:23;16.70;47.60
2889;DHT22;1453;42.708;23.282;2023-04-15T13:01:50;17.10;47.50
2889;DHT22;1453;42.708;23.282;2023-04-15T13:04:16;17.30;47.60
2889;DHT22;1453;42.708;23.282;2023-04-15T13:06:43;17.50;47.70
2889;DHT22;1453;42.708;23.282;2023-04-15T13:09:09;17.70;47.40
2889;DHT22;1453;42.708;23.282;2023-04-15T13:11:35;17.20;47.10
2889;DHT22;1453;42.708;23.282;2023-04-15T13:14:05;16.70;47.10
2889;DHT22;1453;42.708;23.282;2023-04-15T13:16:33;16.90;48.10
2889;DHT22;1453;42.708;23.282;2023-04-15T13:18:59;17.60;48.10
2889;DHT22;1453;42.708;23.282;2023-04-15T13:21:27;17.90;47.10
2889;DHT22;1453;42.708;23.282;2023-04-15T13:23:53;17.40;47.20
2889;DHT22;1453;42.708;23.282;2023-04-15T13:26:19;17.50;47.70
2889;DHT22;1453;42.708;23.282;2023-04-15T13:28:45;17.50;47.20
2889;DHT22;1453;42.708;23.282;2023-04-15T13:31:11;17.10;46.70
2889;DHT22;1453;42.708;23.282;2023-04-15T13:33:37;17.50;47.00
2889;DHT22;1453;42.708;23.282;2023-04-15T13:36:03;17.40;47.10
2889;DHT22;1453;42.708;23.282;2023-04-15T13:38:29;17.70;47.80
2889;DHT22;1453;42.708;23.282;2023-04-15T13:40:55;17.20;47.20
2889;DHT22;1453;42.708;23.282;2023-04-15T13:43:21;18.10;46.60
2889;DHT22;1453;42.708;23.282;2023-04-15T13:45:47;17.30;46.20
2889;DHT22;1453;42.708;23.282;2023-04-15T13:48:12;17.00;47.00
2889;DHT22;1453;42.708;23.282;2023-04-15T13:50:38;17.80;47.40
2889;DHT22;1453;42.708;23.282;2023-04-15T13:53:05;17.60;47.10
2889;DHT22;1453;42.708;23.282;2023-04-15T13:55:31;17.40;47.00
2889;DHT22;1453;42.708;23.282;2023-04-15T13:57:59;17.50;47.30
2889;DHT22;1453;42.708;23.282;2023-04-15T14:00:25;17.70;47.40
2889;DHT22;1453;42.708;23.282;2023-04-15T14:02:51;17.90;47.10
2889;DHT22;1453;42.708;23.282;2023-04-15T14:05:17;17.60;47.10
2889;DHT22;1453;42.708;23.282;2023-04-15T14:07:42;18.60;47.40
2889;DHT22;1453;42.708;23.282;2023-04-15T14:10:08;18.00;46.70
2889;DHT22;1453;42.708;23.282;2023-04-15T14:12:34;17.00;47.10
2889;DHT22;1453;42.708;23.282;2023-04-15T14:15:00;17.40;47.40
2889;DHT22;1453;42.708;23.282;2023-04-15T14:17:26;17.60;46.90
2889;DHT22;1453;42.708;23.282;2023-04-15T14:19:52;17.90;47.30
2889;DHT22;1453;42.708;23.282;2023-04-15T14:22:18;17.50;46.80
2889;DHT22;1453;42.708;23.282;2023-04-15T14:24:44;17.30;46.90
2889;DHT22;1453;42.708;23.282;2023-04-15T14:27:10;17.50;47.00
2889;DHT22;1453;42.708;23.282;2023-04-15T14:29:37;17.90;46.80
2889;DHT22;1453;42.708;23.282;2023-04-15T14:32:03;17.30;46.80
2889;DHT22;1453;42.708;23.282;2023-04-15T14:34:29;17.30;46.80
2889;DHT22;1453;42.708;23.282;2023-04-15T14:36:55;17.00;47.00
2889;DHT22;1453;42.708;23.282;2023-04-15T14:39:22;17.40;47.90
2889;DHT22;1453;42.708;23.282;2023-04-15T14:41:48;17.30;46.90
2889;DHT22;1453;42.708;23.282;2023-04-15T14:44:14;17.00;46.70
2889;DHT22;1453;42.708;23.282;2023-04-15T14:46:40;17.50;48.10
2889;DHT22;1453;42.708;23.282;2023-04-15T14:49:06;17.50;46.70
2889;DHT22;1453;42.708;23.282;2023-04-15T14:51:32;17.40;47.30
2889;DHT22;1453;42.708;23.282;2023-04-15T14:53:58;17.10;46.60
2889;DHT22;1453;42.708;23.282;2023-04-15T14:56:24;17.50;47.50
2889;DHT22;1453;42.708;23.282;2023-04-15T14:58:50;17.00;46.70
2889;DHT22;1453;42.708;23.282;2023-04-15T15:01:17;17.80;47.50
2889;DHT22;1453;42.708;23.282;2023-04-15T15:03:44;17.40;46.40
2889;DHT22;1453;42.708;23.282;2023-04-15T15:06:10;18.20;47.10
2889;DHT22;1453;42.708;23.282;2023-04-15T15:08:35;17.80;46.70
2889;DHT22;1453;42.708;23.282;2023-04-15T15:11:01;17.10;47.00
2889;DHT22;1453;42.708;23.282;2023-04-15T15:13:27;17.10;47.10
2889;DHT22;1453;42.708;23.282;2023-04-15T15:15:53;17.30;47.30
2889;DHT22;1453;42.708;23.282;2023-04-15T15:18:19;16.90;47.60
2889;DHT22;1453;42.708;23.282;2023-04-15T15:20:45;17.10;47.60
2889;DHT22;1453;42.708;23.282;2023-04-15T15:23:11;17.30;47.30
2889;DHT22;1453;42.708;23.282;2023-04-15T15:25:37;17.30;47.70
2889;DHT22;1453;42.708;23.282;2023-04-15T15:28:03;17.50;47.20
2889;DHT22;1453;42.708;23.282;2023-04-15T15:30:30;17.00;46.90
2889;DHT22;1453;42.708;23.282;2023-04-15T15:32:55;17.00;47.50
2889;DHT22;1453;42.708;23.282;2023-04-15T15:35:21;16.90;46.80
2889;DHT22;1453;42.708;23.282;2023-04-15T15:37:48;17.00;47.60
2889;DHT22;1453;42.708;23.282;2023-04-15T15:40:13;16.60;48.00
2889;DHT22;1453;42.708;23.282;2023-04-15T15:42:39;16.60;48.50
2889;DHT22;1453;42.708;23.282;2023-04-15T15:45:06;16.50;48.50
2889;DHT22;1453;42.708;23.282;2023-04-15T15:47:32;16.50;48.50
2889;DHT22;1453;42.708;23.282;2023-04-15T15:49:59;16.40;48.70
2889;DHT22;1453;42.708;23.282;2023-04-15T15:52:26;16.60;49.10
2889;DHT22;1453;42.708;23.282;2023-04-15T15:54:52;16.50;49.20
2889;DHT22;1453;42.708;23.282;2023-04-15T15:57:17;16.50;49.20
2889;DHT22;1453;42.708;23.282;2023-04-15T15:59:43;16.50;49.10
2889;DHT22;1453;42.708;23.282;2023-04-15T16:02:10;16.40;49.20
2889;DHT22;1453;42.708;23.282;2023-04-15T16:04:37;16.40;49.40
2889;DHT22;1453;42.708;23.282;2023-04-15T16:07:03;16.40;49.50
2889;DHT22;1453;42.708;23.282;2023-04-15T16:09:29;16.40;49.60
2889;DHT22;1453;42.708;23.282;2023-04-15T16:11:56;16.30;49.60
2889;DHT22;1453;42.708;23.282;2023-04-15T16:14:23;16.20;49.30
2889;DHT22;1453;42.708;23.282;2023-04-15T16:16:50;16.40;49.70
2889;DHT22;1453;42.708;23.282;2023-04-15T16:19:16;16.30;49.10
2889;DHT22;1453;42.708;23.282;2023-04-15T16:21:43;16.20;49.00
2889;DHT22;1453;42.708;23.282;2023-04-15T16:24:09;16.20;49.20
2889;DHT22;1453;42.708;23.282;2023-04-15T16:26:35;16.30;49.60
2889;DHT22;1453;42.708;23.282;2023-04-15T16:29:01;16.30;49.40
2889;DHT22;1453;42.708;23.282;2023-04-15T16:31:28;16.10;49.60
2889;DHT22;1453;42.708;23.282;2023-04-15T16:33:54;16.10;49.70
2889;DHT22;1453;42.708;23.282;2023-04-15T16:36:20;15.90;49.60
2889;DHT22;1453;42.708;23.282;2023-04-15T16:38:45;15.90;49.80
2889;DHT22;1453;42.708;23.282;2023-04-15T16:41:14;15.90;50.10
2889;DHT22;1453;42.708;23.282;2023-04-15T16:43:40;15.90;50.30
2889;DHT22;1453;42.708;23.282;2023-04-15T16:46:07;15.80;50.50
2889;DHT22;1453;42.708;23.282;2023-04-15T16:48:36;15.80;50.40
2889;DHT22;1453;42.708;23.282;2023-04-15T16:51:02;15.80;50.00
2889;DHT22;1453;42.708;23.282;2023-04-15T16:53:27;15.80;49.80
2889;DHT22;1453;42.708;23.282;2023-04-15T16:55:53;15.90;50.10
2889;DHT22;1453;42.708;23.282;2023-04-15T16:58:19;15.90;49.80
2889;DHT22;1453;42.708;23.282;2023-04-15T17:00:45;15.80;49.90
2889;DHT22;1453;42.708;23.282;2023-04-15T17:03:11;15.80;50.50
2889;DHT22;1453;42.708;23.282;2023-04-15T17:05:37;15.50;50.70
2889;DHT22;1453;42.708;23.282;2023-04-15T17:08:03;15.40;51.00
2889;DHT22;1453;42.708;23.282;2023-04-15T17:10:30;15.40;51.20
2889;DHT22;1453;42.708;23.282;2023-04-15T17:12:56;15.40;51.20
2889;DHT22;1453;42.708;23.282;2023-04-15T17:15:24;15.20;51.40
2889;DHT22;1453;42.708;23.282;2023-04-15T17:17:50;15.20;51.50
2889;DHT22;1453;42.708;23.282;2023-04-15T17:20:16;15.20;51.30
2889;DHT22;1453;42.708;23.282;2023-04-15T17:22:42;15.30;51.20
2889;DHT22;1453;42.708;23.282;2023-04-15T17:25:08;15.20;51.30
2889;DHT22;1453;42.708;23.282;2023-04-15T17:27:34;15.40;51.00
2889;DHT22;1453;42.708;23.282;2023-04-15T17:30:00;15.40;50.80
2889;DHT22;1453;42.708;23.282;2023-04-15T17:32:26;15.20;51.30
2889;DHT22;1453;42.708;23.282;2023-04-15T17:35:04;15.20;51.90
2889;DHT22;1453;42.708;23.282;2023-04-15T17:37:31;15.20;52.00
2889;DHT22;1453;42.708;23.282;2023-04-15T17:39:58;15.10;52.10
2889;DHT22;1453;42.708;23.282;2023-04-15T17:42:24;15.00;52.60
2889;DHT22;1453;42.708;23.282;2023-04-15T17:44:50;14.90;53.10
2889;DHT22;1453;42.708;23.282;2023-04-15T17:47:16;14.90;53.20
2889;DHT22;1453;42.708;23.282;2023-04-15T17:49:43;15.00;52.90
2889;DHT22;1453;42.708;23.282;2023-04-15T17:52:09;15.10;52.60
2889;DHT22;1453;42.708;23.282;2023-04-15T17:54:34;15.10;52.80
2889;DHT22;1453;42.708;23.282;2023-04-15T17:57:00;15.00;52.40
2889;DHT22;1453;42.708;23.282;2023-04-15T17:59:28;15.10;52.50
2889;DHT22;1453;42.708;23.282;2023-04-15T18:01:54;15.20;51.60
2889;DHT22;1453;42.708;23.282;2023-04-15T18:04:20;15.30;50.80
2889;DHT22;1453;42.708;23.282;2023-04-15T18:06:46;15.30;50.00
2889;DHT22;1453;42.708;23.282;2023-04-15T18:09:11;15.20;50.00
2889;DHT22;1453;42.708;23.282;2023-04-15T18:11:37;15.20;50.70
2889;DHT22;1453;42.708;23.282;2023-04-15T18:14:04;15.20;50.70
2889;DHT22;1453;42.708;23.282;2023-04-15T18:16:30;15.20;50.50
2889;DHT22;1453;42.708;23.282;2023-04-15T18:18:56;15.20;50.30
2889;DHT22;1453;42.708;23.282;2023-04-15T18:21:22;15.30;49.90
2889;DHT22;1453;42.708;23.282;2023-04-15T18:23:48;15.20;50.20
2889;DHT22;1453;42.708;23.282;2023-04-15T18:26:13;15.10;50.30
2889;DHT22;1453;42.708;23.282;2023-04-15T18:28:40;15.10;50.50
2889;DHT22;1453;42.708;23.282;2023-04-15T18:31:05;15.10;50.20
2889;DHT22;1453;42.708;23.282;2023-04-15T18:33:31;15.10;50.00
2889;DHT22;1453;42.708;23.282;2023-04-15T18:35:57;15.20;50.00
2889;DHT22;1453;42.708;23.282;2023-04-15T18:38:23;15.10;50.10
2889;DHT22;1453;42.708;23.282;2023-04-15T18:40:49;15.10;50.40
2889;DHT22;1453;42.708;23.282;2023-04-15T18:43:15;15.00;50.60
2889;DHT22;1453;42.708;23.282;2023-04-15T18:45:40;15.00;51.70
2889;DHT22;1453;42.708;23.282;2023-04-15T18:48:07;15.00;50.80
2889;DHT22;1453;42.708;23.282;2023-04-15T18:50:32;14.90;51.20
2889;DHT22;1453;42.708;23.282;2023-04-15T18:52:58;14.90;51.30
2889;DHT22;1453;42.708;23.282;2023-04-15T18:55:24;14.60;52.40
2889;DHT22;1453;42.708;23.282;2023-04-15T18:57:50;14.60;52.00
2889;DHT22;1453;42.708;23.282;2023-04-15T19:00:16;14.40;52.30
2889;DHT22;1453;42.708;23.282;2023-04-15T19:02:42;14.20;52.90
2889;DHT22;1453;42.708;23.282;2023-04-15T19:05:09;14.30;53.10
2889;DHT22;1453;42.708;23.282;2023-04-15T19:07:35;14.10;53.80
2889;DHT22;1453;42.708;23.282;2023-04-15T19:10:03;14.10;53.90
2889;DHT22;1453;42.708;23.282;2023-04-15T19:12:29;14.10;53.70
2889;DHT22;1453;42.708;23.282;2023-04-15T19:14:55;14.00;53.90
2889;DHT22;1453;42.708;23.282;2023-04-15T19:17:21;14.00;55.00
2889;DHT22;1453;42.708;23.282;2023-04-15T19:19:46;14.10;54.30
2889;DHT22;1453;42.708;23.282;2023-04-15T19:22:12;14.10;53.90
2889;DHT22;1453;42.708;23.282;2023-04-15T19:24:38;14.00;54.20
2889;DHT22;1453;42.708;23.282;2023-04-15T19:27:04;13.90;54.50
2889;DHT22;1453;42.708;23.282;2023-04-15T19:29:30;14.00;54.40
2889;DHT22;1453;42.708;23.282;2023-04-15T19:31:56;14.00;54.60
2889;DHT22;1453;42.708;23.282;2023-04-15T19:34:21;13.80;54.90
2889;DHT22;1453;42.708;23.282;2023-04-15T19:36:49;13.90;55.00
2889;DHT22;1453;42.708;23.282;2023-04-15T19:39:15;13.80;54.90
2889;DHT22;1453;42.708;23.282;2023-04-15T19:41:41;13.90;55.00
2889;DHT22;1453;42.708;23.282;2023-04-15T19:44:08;13.80;54.90
2889;DHT22;1453;42.708;23.282;2023-04-15T19:46:37;13.90;55.20
2889;DHT22;1453;42.708;23.282;2023-04-15T19:49:04;13.90;56.00
2889;DHT22;1453;42.708;23.282;2023-04-15T19:51:30;13.80;57.10
2889;DHT22;1453;42.708;23.282;2023-04-15T19:53:56;13.70;57.60
2889;DHT22;1453;42.708;23.282;2023-04-15T19:56:24;13.70;58.30
2889;DHT22;1453;42.708;23.282;2023-04-15T19:58:50;13.60;58.60
2889;DHT22;1453;42.708;23.282;2023-04-15T20:01:21;13.30;59.10
2889;DHT22;1453;42.708;23.282;2023-04-15T20:03:47;13.20;59.60
2889;DHT22;1453;42.708;23.282;2023-04-15T20:06:15;13.30;59.80
2889;DHT22;1453;42.708;23.282;2023-04-15T20:08:41;13.30;59.70
2889;DHT22;1453;42.708;23.282;2023-04-15T20:11:08;13.40;59.90
2889;DHT22;1453;42.708;23.282;2023-04-15T20:13:34;13.30;60.00
2889;DHT22;1453;42.708;23.282;2023-04-15T20:16:00;13.30;60.20
2889;DHT22;1453;42.708;23.282;2023-04-15T20:18:26;13.30;60.40
2889;DHT22;1453;42.708;23.282;2023-04-15T20:20:52;13.40;60.20
2889;DHT22;1453;42.708;23.282;2023-04-15T20:23:18;13.50;60.30
2889;DHT22;1453;42.708;23.282;2023-04-15T20:25:44;13.50;60.80
2889;DHT22;1453;42.708;23.282;2023-04-15T20:28:10;13.40;60.90
2889;DHT22;1453;42.708;23.282;2023-04-15T20:30:36;13.30;60.70
2889;DHT22;1453;42.708;23.282;2023-04-15T20:33:04;13.00;61.20
2889;DHT22;1453;42.708;23.282;2023-04-15T20:35:32;13.00;61.40
2889;DHT22;1453;42.708;23.282;2023-04-15T20:37:58;13.10;61.70
2889;DHT22;1453;42.708;23.282;2023-04-15T20:40:25;13.20;61.40
2889;DHT22;1453;42.708;23.282;2023-04-15T20:42:51;13.30;60.70
2889;DHT22;1453;42.708;23.282;2023-04-15T20:45:17;13.00;60.90
2889;DHT22;1453;42.708;23.282;2023-04-15T20:47:42;12.90;61.40
2889;DHT22;1453;42.708;23.282;2023-04-15T20:50:09;12.60;62.50
2889;DHT22;1453;42.708;23.282;2023-04-15T20:52:35;12.60;63.90
2889;DHT22;1453;42.708;23.282;2023-04-15T20:55:01;12.70;63.80
2889;DHT22;1453;42.708;23.282;2023-04-15T20:57:27;12.90;63.50
2889;DHT22;1453;42.708;23.282;2023-04-15T20:59:54;13.00;63.20
2889;DHT22;1453;42.708;23.282;2023-04-15T21:02:22;13.10;62.30
2889;DHT22;1453;42.708;23.282;2023-04-15T21:04:48;12.50;63.30
2889;DHT22;1453;42.708;23.282;2023-04-15T21:07:14;12.40;65.70
2889;DHT22;1453;42.708;23.282;2023-04-15T21:09:40;12.50;64.00
2889;DHT22;1453;42.708;23.282;2023-04-15T21:12:08;12.40;63.80
2889;DHT22;1453;42.708;23.282;2023-04-15T21:14:35;12.50;63.70
2889;DHT22;1453;42.708;23.282;2023-04-15T21:17:02;12.80;63.40
2889;DHT22;1453;42.708;23.282;2023-04-15T21:19:32;12.80;64.80
2889;DHT22;1453;42.708;23.282;2023-04-15T21:21:58;12.90;64.50
2889;DHT22;1453;42.708;23.282;2023-04-15T21:24:24;12.90;62.50
2889;DHT22;1453;42.708;23.282;2023-04-15T21:26:50;12.80;62.60
2889;DHT22;1453;42.708;23.282;2023-04-15T21:29:16;12.70;63.20
2889;DHT22;1453;42.708;23.282;2023-04-15T21:31:42;12.90;64.20
2889;DHT22;1453;42.708;23.282;2023-04-15T21:34:08;13.00;64.40
2889;DHT22;1453;42.708;23.282;2023-04-15T21:36:35;13.10;64.50
2889;DHT22;1453;42.708;23.282;2023-04-15T21:39:01;13.20;64.70
2889;DHT22;1453;42.708;23.282;2023-04-15T21:41:27;13.40;64.70
2889;DHT22;1453;42.708;23.282;2023-04-15T21:43:53;13.40;63.30
2889;DHT22;1453;42.708;23.282;2023-04-15T21:46:19;13.30;63.60
2889;DHT22;1453;42.708;23.282;2023-04-15T21:48:45;12.90;64.60
2889;DHT22;1453;42.708;23.282;2023-04-15T21:51:13;12.80;66.10
2889;DHT22;1453;42.708;23.282;2023-04-15T21:53:39;12.80;67.50
2889;DHT22;1453;42.708;23.282;2023-04-15T21:56:05;12.80;67.80
2889;DHT22;1453;42.708;23.282;2023-04-15T21:58:34;12.80;68.40
2889;DHT22;1453;42.708;23.282;2023-04-15T22:01:01;12.70;68.20
2889;DHT22;1453;42.708;23.282;2023-04-15T22:03:29;12.80;67.30
2889;DHT22;1453;42.708;23.282;2023-04-15T22:05:58;12.90;66.60
2889;DHT22;1453;42.708;23.282;2023-04-15T22:08:24;13.00;66.30
2889;DHT22;1453;42.708;23.282;2023-04-15T22:10:50;12.80;66.20
2889;DHT22;1453;42.708;23.282;2023-04-15T22:13:16;12.70;65.90
2889;DHT22;1453;42.708;23.282;2023-04-15T22:15:42;12.60;65.90
2889;DHT22;1453;42.708;23.282;2023-04-15T22:18:10;12.60;66.70
2889;DHT22;1453;42.708;23.282;2023-04-15T22:20:36;12.60;65.70
2889;DHT22;1453;42.708;23.282;2023-04-15T22:23:02;12.60;64.20
2889;DHT22;1453;42.708;23.282;2023-04-15T22:25:33;12.60;63.60
2889;DHT22;1453;42.708;23.282;2023-04-15T22:28:06;12.60;63.30
2889;DHT22;1453;42.708;23.282;2023-04-15T22:30:38;12.50;63.00
2889;DHT22;1453;42.708;23.282;2023-04-15T22:33:05;12.60;62.80
2889;DHT22;1453;42.708;23.282;2023-04-15T22:35:32;12.60;62.70
2889;DHT22;1453;42.708;23.282;2023-04-15T22:37:59;12.60;62.60
2889;DHT22;1453;42.708;23.282;2023-04-15T22:40:25;12.60;62.90
2889;DHT22;1453;42.708;23.282;2023-04-15T22:42:51;12.60;63.70
2889;DHT22;1453;42.708;23.282;2023-04-15T22:45:16;12.60;65.60
2889;DHT22;1453;42.708;23.282;2023-04-15T22:47:42;12.60;65.40
2889;DHT22;1453;42.708;23.282;2023-04-15T22:50:08;12.70;68.70
2889;DHT22;1453;42.708;23.282;2023-04-15T22:52:34;12.60;67.90
2889;DHT22;1453;42.708;23.282;2023-04-15T22:55:00;12.50;82.60
2889;DHT22;1453;42.708;23.282;2023-04-15T22:57:27;12.40;90.10
2889;DHT22;1453;42.708;23.282;2023-04-15T22:59:53;12.40;95.70
2889;DHT22;1453;42.708;23.282;2023-04-15T23:02:19;12.30;99.20
2889;DHT22;1453;42.708;23.282;2023-04-15T23:04:44;12.30;99.90
2889;DHT22;1453;42.708;23.282;2023-04-15T23:07:10;12.30;99.90
2889;DHT22;1453;42.708;23.282;2023-04-15T23:09:37;12.20;99.90
2889;DHT22;1453;42.708;23.282;2023-04-15T23:12:03;12.20;99.90
2889;DHT22;1453;42.708;23.282;2023-04-15T23:14:30;12.10;99.90
2889;DHT22;1453;42.708;23.282;2023-04-15T23:16:56;12.10;99.90
2889;DHT22;1453;42.708;23.282;2023-04-15T23:19:23;11.90;99.90
2889;DHT22;1453;42.708;23.282;2023-04-15T23:21:49;11.90;99.90
2889;DHT22;1453;42.708;23.282;2023-04-15T23:24:15;11.90;99.90
2889;DHT22;1453;42.708;23.282;2023-04-15T23:26:41;11.90;99.90
2889;DHT22;1453;42.708;23.282;2023-04-15T23:29:07;11.90;99.90
2889;DHT22;1453;42.708;23.282;2023-04-15T23:31:34;12.00;99.90
2889;DHT22;1453;42.708;23.282;2023-04-15T23:34:01;11.90;99.90
2889;DHT22;1453;42.708;23.282;2023-04-15T23:36:27;11.90;99.90
2889;DHT22;1453;42.708;23.282;2023-04-15T23:38:53;11.90;99.90
2889;DHT22;1453;42.708;23.282;2023-04-15T23:41:19;11.90;99.90
2889;DHT22;1453;42.708;23.282;2023-04-15T23:43:45;12.00;99.90
2889;DHT22;1453;42.708;23.282;2023-04-15T23:46:11;12.00;99.90
2889;DHT22;1453;42.708;23.282;2023-04-15T23:48:37;12.10;99.90
2889;DHT22;1453;42.708;23.282;2023-04-15T23:51:03;12.10;99.90
2889;DHT22;1453;42.708;23.282;2023-04-15T23:53:29;12.20;99.90
2889;DHT22;1453;42.708;23.282;2023-04-15T23:55:56;12.20;99.90
2889;DHT22;1453;42.708;23.282;2023-04-15T23:58:22;12.00;95.50
